sensor_id;sensor_type;location;lat;lon;timestamp;P1;durP1;ratioP1;P2;durP2;ratioP2
9563;SDS011;4820;50.870;4.702;2024-03-22T00:01:53;36.92;;;30.25;;
9563;SDS011;4820;50.870;4.702;2024-03-22T00:04:20;39.50;;;31.33;;
9563;SDS011;4820;50.870;4.702;2024-03-22T00:06:46;38.42;;;30.83;;
9563;SDS011;4820;50.870;4.702;2024-03-22T00:09:13;36.80;;;30.15;;
9563;SDS011;4820;50.870;4.702;2024-03-22T00:11:39;40.30;;;31.10;;
9563;SDS011;4820;50.870;4.702;2024-03-22T00:14:06;40.97;;;31.10;;
9563;SDS011;4820;50.870;4.702;2024-03-22T00:16:32;39.42;;;31.50;;
9563;SDS011;4820;50.870;4.702;2024-03-22T00:18:58;38.95;;;31.45;;
9563;SDS011;4820;50.870;4.702;2024-03-22T00:21:24;38.92;;;31.05;;
9563;SDS011;4820;50.870;4.702;2024-03-22T00:23:50;39.90;;;31.90;;
9563;SDS011;4820;50.870;4.702;2024-03-22T00:26:16;39.03;;;31.15;;
9563;SDS011;4820;50.870;4.702;2024-03-22T00:28:42;41.28;;;32.17;;
9563;SDS011;4820;50.870;4.702;2024-03-22T00:31:10;39.92;;;31.63;;
9563;SDS011;4820;50.870;4.702;2024-03-22T00:33:36;35.30;;;29.05;;
9563;SDS011;4820;50.870;4.702;2024-03-22T00:36:03;40.67;;;31.60;;
9563;SDS011;4820;50.870;4.702;2024-03-22T00:38:29;41.10;;;30.95;;
9563;SDS011;4820;50.870;4.702;2024-03-22T00:40:55;37.88;;;30.58;;
9563;SDS011;4820;50.870;4.702;2024-03-22T00:43:21;40.15;;;30.70;;
9563;SDS011;4820;50.870;4.702;2024-03-22T00:45:47;39.30;;;30.52;;
9563;SDS011;4820;50.870;4.702;2024-03-22T00:48:13;37.30;;;30.05;;
9563;SDS011;4820;50.870;4.702;2024-03-22T00:50:39;41.75;;;30.58;;
9563;SDS011;4820;50.870;4.702;2024-03-22T00:55:35;36.75;;;29.27;;
9563;SDS011;4820;50.870;4.702;2024-03-22T00:58:01;38.47;;;30.45;;
9563;SDS011;4820;50.870;4.702;2024-03-22T01:00:26;38.72;;;30.67;;
9563;SDS011;4820;50.870;4.702;2024-03-22T01:02:52;38.33;;;30.25;;
9563;SDS011;4820;50.870;4.702;2024-03-22T01:05:19;38.45;;;30.42;;
9563;SDS011;4820;50.870;4.702;2024-03-22T01:07:45;39.60;;;31.15;;
9563;SDS011;4820;50.870;4.702;2024-03-22T01:10:11;40.08;;;30.17;;
9563;SDS011;4820;50.870;4.702;2024-03-22T01:12:37;37.42;;;30.92;;
9563;SDS011;4820;50.870;4.702;2024-03-22T01:15:04;39.35;;;31.38;;
9563;SDS011;4820;50.870;4.702;2024-03-22T01:17:30;38.45;;;30.02;;
9563;SDS011;4820;50.870;4.702;2024-03-22T01:19:57;38.17;;;30.40;;
9563;SDS011;4820;50.870;4.702;2024-03-22T01:22:24;37.55;;;30.23;;
9563;SDS011;4820;50.870;4.702;2024-03-22T01:24:50;41.03;;;31.13;;
9563;SDS011;4820;50.870;4.702;2024-03-22T01:27:16;40.45;;;31.60;;
9563;SDS011;4820;50.870;4.702;2024-03-22T01:29:43;37.88;;;28.92;;
9563;SDS011;4820;50.870;4.702;2024-03-22T01:32:08;40.30;;;29.83;;
9563;SDS011;4820;50.870;4.702;2024-03-22T01:34:34;37.67;;;29.58;;
9563;SDS011;4820;50.870;4.702;2024-03-22T01:37:00;36.63;;;28.10;;
9563;SDS011;4820;50.870;4.702;2024-03-22T01:39:26;37.15;;;28.90;;
9563;SDS011;4820;50.870;4.702;2024-03-22T01:41:52;38.40;;;29.95;;
9563;SDS011;4820;50.870;4.702;2024-03-22T01:44:17;38.53;;;29.33;;
9563;SDS011;4820;50.870;4.702;2024-03-22T01:46:44;39.10;;;29.30;;
9563;SDS011;4820;50.870;4.702;2024-03-22T01:49:14;36.65;;;28.85;;
9563;SDS011;4820;50.870;4.702;2024-03-22T01:51:42;38.80;;;29.38;;
9563;SDS011;4820;50.870;4.702;2024-03-22T01:54:08;34.58;;;29.15;;
9563;SDS011;4820;50.870;4.702;2024-03-22T01:56:38;36.08;;;27.83;;
9563;SDS011;4820;50.870;4.702;2024-03-22T01:59:05;37.00;;;28.80;;
9563;SDS011;4820;50.870;4.702;2024-03-22T02:01:31;34.75;;;28.67;;
9563;SDS011;4820;50.870;4.702;2024-03-22T02:03:58;36.30;;;28.70;;
9563;SDS011;4820;50.870;4.702;2024-03-22T02:06:24;35.45;;;29.25;;
9563;SDS011;4820;50.870;4.702;2024-03-22T02:08:50;36.35;;;28.35;;
9563;SDS011;4820;50.870;4.702;2024-03-22T02:11:15;34.63;;;28.42;;
9563;SDS011;4820;50.870;4.702;2024-03-22T02:13:41;38.40;;;29.30;;
9563;SDS011;4820;50.870;4.702;2024-03-22T02:16:10;34.63;;;27.10;;
9563;SDS011;4820;50.870;4.702;2024-03-22T02:18:37;38.45;;;27.52;;
9563;SDS011;4820;50.870;4.702;2024-03-22T02:21:03;35.47;;;27.23;;
9563;SDS011;4820;50.870;4.702;2024-03-22T02:23:32;36.17;;;28.75;;
9563;SDS011;4820;50.870;4.702;2024-03-22T02:25:58;37.05;;;27.58;;
9563;SDS011;4820;50.870;4.702;2024-03-22T02:28:24;39.30;;;27.85;;
9563;SDS011;4820;50.870;4.702;2024-03-22T02:30:50;36.38;;;26.88;;
9563;SDS011;4820;50.870;4.702;2024-03-22T02:33:16;33.38;;;25.67;;
9563;SDS011;4820;50.870;4.702;2024-03-22T02:35:42;36.00;;;26.95;;
9563;SDS011;4820;50.870;4.702;2024-03-22T02:38:08;33.08;;;24.70;;
9563;SDS011;4820;50.870;4.702;2024-03-22T02:40:34;34.30;;;24.38;;
9563;SDS011;4820;50.870;4.702;2024-03-22T02:43:00;34.50;;;24.45;;
9563;SDS011;4820;50.870;4.702;2024-03-22T02:45:26;33.92;;;24.08;;
9563;SDS011;4820;50.870;4.702;2024-03-22T02:47:52;31.17;;;23.63;;
9563;SDS011;4820;50.870;4.702;2024-03-22T02:50:18;30.05;;;23.33;;
9563;SDS011;4820;50.870;4.702;2024-03-22T02:52:44;30.85;;;22.92;;
9563;SDS011;4820;50.870;4.702;2024-03-22T02:55:10;34.42;;;23.85;;
9563;SDS011;4820;50.870;4.702;2024-03-22T02:57:35;31.15;;;22.77;;
9563;SDS011;4820;50.870;4.702;2024-03-22T03:00:01;31.42;;;23.10;;
9563;SDS011;4820;50.870;4.702;2024-03-22T03:02:30;29.85;;;22.38;;
9563;SDS011;4820;50.870;4.702;2024-03-22T03:04:56;30.23;;;23.17;;
9563;SDS011;4820;50.870;4.702;2024-03-22T03:07:22;30.23;;;22.13;;
9563;SDS011;4820;50.870;4.702;2024-03-22T03:09:52;29.13;;;21.63;;
9563;SDS011;4820;50.870;4.702;2024-03-22T03:12:18;29.05;;;20.98;;
9563;SDS011;4820;50.870;4.702;2024-03-22T03:14:44;26.42;;;20.33;;
9563;SDS011;4820;50.870;4.702;2024-03-22T03:17:11;25.40;;;19.52;;
9563;SDS011;4820;50.870;4.702;2024-03-22T03:19:37;24.30;;;18.80;;
9563;SDS011;4820;50.870;4.702;2024-03-22T03:22:03;25.30;;;19.98;;
9563;SDS011;4820;50.870;4.702;2024-03-22T03:24:29;24.52;;;19.75;;
9563;SDS011;4820;50.870;4.702;2024-03-22T03:26:54;28.02;;;19.60;;
9563;SDS011;4820;50.870;4.702;2024-03-22T03:29:20;25.98;;;19.13;;
9563;SDS011;4820;50.870;4.702;2024-03-22T03:31:46;26.70;;;19.20;;
9563;SDS011;4820;50.870;4.702;2024-03-22T03:34:12;25.83;;;19.35;;
9563;SDS011;4820;50.870;4.702;2024-03-22T03:36:38;24.27;;;18.67;;
9563;SDS011;4820;50.870;4.702;2024-03-22T03:39:04;21.58;;;17.83;;
9563;SDS011;4820;50.870;4.702;2024-03-22T03:41:30;23.23;;;18.35;;
9563;SDS011;4820;50.870;4.702;2024-03-22T03:43:56;23.42;;;18.50;;
9563;SDS011;4820;50.870;4.702;2024-03-22T03:46:21;24.73;;;19.00;;
9563;SDS011;4820;50.870;4.702;2024-03-22T03:48:48;25.33;;;18.52;;
9563;SDS011;4820;50.870;4.702;2024-03-22T03:51:13;23.48;;;18.73;;
9563;SDS011;4820;50.870;4.702;2024-03-22T03:53:40;23.30;;;18.13;;
9563;SDS011;4820;50.870;4.702;2024-03-22T03:56:06;22.08;;;18.42;;
9563;SDS011;4820;50.870;4.702;2024-03-22T03:58:31;22.95;;;17.33;;
9563;SDS011;4820;50.870;4.702;2024-03-22T04:00:57;21.45;;;17.10;;
9563;SDS011;4820;50.870;4.702;2024-03-22T04:03:23;24.10;;;18.55;;
9563;SDS011;4820;50.870;4.702;2024-03-22T04:05:59;20.83;;;17.85;;
9563;SDS011;4820;50.870;4.702;2024-03-22T04:08:26;19.92;;;17.75;;
9563;SDS011;4820;50.870;4.702;2024-03-22T04:10:52;23.05;;;17.88;;
9563;SDS011;4820;50.870;4.702;2024-03-22T04:13:18;21.52;;;16.83;;
9563;SDS011;4820;50.870;4.702;2024-03-22T04:15:44;22.83;;;17.92;;
9563;SDS011;4820;50.870;4.702;2024-03-22T04:18:11;20.15;;;16.80;;
9563;SDS011;4820;50.870;4.702;2024-03-22T04:20:36;21.13;;;16.48;;
9563;SDS011;4820;50.870;4.702;2024-03-22T04:23:02;20.50;;;16.05;;
9563;SDS011;4820;50.870;4.702;2024-03-22T04:25:28;20.13;;;16.27;;
9563;SDS011;4820;50.870;4.702;2024-03-22T04:27:54;22.50;;;16.67;;
9563;SDS011;4820;50.870;4.702;2024-03-22T04:30:19;22.85;;;16.90;;
9563;SDS011;4820;50.870;4.702;2024-03-22T04:32:46;21.10;;;16.20;;
9563;SDS011;4820;50.870;4.702;2024-03-22T04:35:11;19.55;;;14.77;;
9563;SDS011;4820;50.870;4.702;2024-03-22T04:37:37;19.23;;;15.25;;
9563;SDS011;4820;50.870;4.702;2024-03-22T04:40:03;17.75;;;15.05;;
9563;SDS011;4820;50.870;4.702;2024-03-22T04:42:29;17.45;;;14.45;;
9563;SDS011;4820;50.870;4.702;2024-03-22T04:44:55;18.42;;;14.85;;
9563;SDS011;4820;50.870;4.702;2024-03-22T04:47:22;17.95;;;14.43;;
9563;SDS011;4820;50.870;4.702;2024-03-22T04:49:49;18.23;;;14.80;;
9563;SDS011;4820;50.870;4.702;2024-03-22T04:52:15;16.83;;;13.77;;
9563;SDS011;4820;50.870;4.702;2024-03-22T04:54:40;18.38;;;13.88;;
9563;SDS011;4820;50.870;4.702;2024-03-22T04:57:06;16.63;;;13.55;;
9563;SDS011;4820;50.870;4.702;2024-03-22T04:59:32;17.30;;;14.10;;
9563;SDS011;4820;50.870;4.702;2024-03-22T05:01:58;17.33;;;13.80;;
9563;SDS011;4820;50.870;4.702;2024-03-22T05:04:23;16.60;;;13.23;;
9563;SDS011;4820;50.870;4.702;2024-03-22T05:06:49;19.38;;;13.35;;
9563;SDS011;4820;50.870;4.702;2024-03-22T05:09:15;15.20;;;13.18;;
9563;SDS011;4820;50.870;4.702;2024-03-22T05:11:40;15.63;;;12.73;;
9563;SDS011;4820;50.870;4.702;2024-03-22T05:14:06;16.15;;;12.82;;
9563;SDS011;4820;50.870;4.702;2024-03-22T05:16:32;14.30;;;12.75;;
9563;SDS011;4820;50.870;4.702;2024-03-22T05:18:58;15.52;;;12.13;;
9563;SDS011;4820;50.870;4.702;2024-03-22T05:21:25;16.17;;;11.80;;
9563;SDS011;4820;50.870;4.702;2024-03-22T05:23:51;14.73;;;12.00;;
9563;SDS011;4820;50.870;4.702;2024-03-22T05:26:16;14.65;;;11.50;;
9563;SDS011;4820;50.870;4.702;2024-03-22T05:28:44;15.38;;;11.10;;
9563;SDS011;4820;50.870;4.702;2024-03-22T05:31:10;14.40;;;11.23;;
9563;SDS011;4820;50.870;4.702;2024-03-22T05:33:35;14.77;;;11.68;;
9563;SDS011;4820;50.870;4.702;2024-03-22T05:36:01;14.13;;;10.98;;
9563;SDS011;4820;50.870;4.702;2024-03-22T05:38:27;13.73;;;11.77;;
9563;SDS011;4820;50.870;4.702;2024-03-22T05:40:53;14.35;;;11.05;;
9563;SDS011;4820;50.870;4.702;2024-03-22T05:43:18;14.05;;;11.43;;
9563;SDS011;4820;50.870;4.702;2024-03-22T05:45:44;13.63;;;10.57;;
9563;SDS011;4820;50.870;4.702;2024-03-22T05:48:10;13.45;;;10.52;;
9563;SDS011;4820;50.870;4.702;2024-03-22T05:50:36;13.50;;;10.07;;
9563;SDS011;4820;50.870;4.702;2024-03-22T05:53:01;12.80;;;9.90;;
9563;SDS011;4820;50.870;4.702;2024-03-22T05:55:28;14.38;;;10.25;;
9563;SDS011;4820;50.870;4.702;2024-03-22T05:57:56;12.18;;;10.18;;
9563;SDS011;4820;50.870;4.702;2024-03-22T06:00:23;13.00;;;10.00;;
9563;SDS011;4820;50.870;4.702;2024-03-22T06:02:48;11.98;;;9.93;;
9563;SDS011;4820;50.870;4.702;2024-03-22T06:05:14;11.00;;;9.57;;
9563;SDS011;4820;50.870;4.702;2024-03-22T06:07:42;12.27;;;9.38;;
9563;SDS011;4820;50.870;4.702;2024-03-22T06:10:11;11.90;;;9.57;;
9563;SDS011;4820;50.870;4.702;2024-03-22T06:12:36;14.77;;;10.52;;
9563;SDS011;4820;50.870;4.702;2024-03-22T06:15:02;11.98;;;10.05;;
9563;SDS011;4820;50.870;4.702;2024-03-22T06:17:31;11.60;;;9.75;;
9563;SDS011;4820;50.870;4.702;2024-03-22T06:19:58;11.98;;;9.18;;
9563;SDS011;4820;50.870;4.702;2024-03-22T06:22:26;13.75;;;10.23;;
9563;SDS011;4820;50.870;4.702;2024-03-22T06:24:53;13.48;;;9.45;;
9563;SDS011;4820;50.870;4.702;2024-03-22T06:27:18;13.52;;;9.38;;
9563;SDS011;4820;50.870;4.702;2024-03-22T06:29:44;12.13;;;10.07;;
9563;SDS011;4820;50.870;4.702;2024-03-22T06:32:10;11.82;;;9.93;;
9563;SDS011;4820;50.870;4.702;2024-03-22T06:34:35;11.82;;;10.18;;
9563;SDS011;4820;50.870;4.702;2024-03-22T06:37:03;14.45;;;10.57;;
9563;SDS011;4820;50.870;4.702;2024-03-22T06:39:30;12.52;;;10.60;;
9563;SDS011;4820;50.870;4.702;2024-03-22T06:41:57;13.15;;;10.82;;
9563;SDS011;4820;50.870;4.702;2024-03-22T06:44:24;12.13;;;10.82;;
9563;SDS011;4820;50.870;4.702;2024-03-22T06:46:50;15.80;;;10.93;;
9563;SDS011;4820;50.870;4.702;2024-03-22T06:49:16;14.30;;;11.35;;
9563;SDS011;4820;50.870;4.702;2024-03-22T06:51:43;13.25;;;11.40;;
9563;SDS011;4820;50.870;4.702;2024-03-22T06:54:08;16.02;;;11.80;;
9563;SDS011;4820;50.870;4.702;2024-03-22T06:56:34;13.75;;;11.07;;
9563;SDS011;4820;50.870;4.702;2024-03-22T06:59:00;13.05;;;11.20;;
9563;SDS011;4820;50.870;4.702;2024-03-22T07:01:26;14.93;;;12.73;;
9563;SDS011;4820;50.870;4.702;2024-03-22T07:03:51;15.35;;;12.65;;
9563;SDS011;4820;50.870;4.702;2024-03-22T07:06:18;14.38;;;12.38;;
9563;SDS011;4820;50.870;4.702;2024-03-22T07:08:43;15.52;;;11.93;;
9563;SDS011;4820;50.870;4.702;2024-03-22T07:11:09;14.85;;;12.70;;
9563;SDS011;4820;50.870;4.702;2024-03-22T07:13:35;15.05;;;12.00;;
9563;SDS011;4820;50.870;4.702;2024-03-22T07:16:01;14.02;;;11.05;;
9563;SDS011;4820;50.870;4.702;2024-03-22T07:18:26;11.75;;;10.55;;
9563;SDS011;4820;50.870;4.702;2024-03-22T07:20:52;12.65;;;11.32;;
9563;SDS011;4820;50.870;4.702;2024-03-22T07:23:18;12.40;;;11.10;;
9563;SDS011;4820;50.870;4.702;2024-03-22T07:25:44;12.45;;;10.23;;
9563;SDS011;4820;50.870;4.702;2024-03-22T07:28:14;12.73;;;10.77;;
9563;SDS011;4820;50.870;4.702;2024-03-22T07:30:49;12.35;;;10.57;;
9563;SDS011;4820;50.870;4.702;2024-03-22T07:33:15;13.38;;;11.10;;
9563;SDS011;4820;50.870;4.702;2024-03-22T07:35:42;13.20;;;11.15;;
9563;SDS011;4820;50.870;4.702;2024-03-22T07:38:09;13.80;;;10.73;;
9563;SDS011;4820;50.870;4.702;2024-03-22T07:40:35;12.70;;;10.38;;
9563;SDS011;4820;50.870;4.702;2024-03-22T07:43:01;14.55;;;11.20;;
9563;SDS011;4820;50.870;4.702;2024-03-22T07:45:36;11.98;;;10.60;;
9563;SDS011;4820;50.870;4.702;2024-03-22T07:48:02;14.98;;;11.88;;
9563;SDS011;4820;50.870;4.702;2024-03-22T07:50:28;14.02;;;11.23;;
9563;SDS011;4820;50.870;4.702;2024-03-22T07:52:53;13.48;;;11.27;;
9563;SDS011;4820;50.870;4.702;2024-03-22T07:55:19;13.77;;;11.45;;
9563;SDS011;4820;50.870;4.702;2024-03-22T07:57:46;14.38;;;11.50;;
9563;SDS011;4820;50.870;4.702;2024-03-22T08:00:12;16.25;;;11.40;;
9563;SDS011;4820;50.870;4.702;2024-03-22T08:02:38;15.43;;;12.20;;
9563;SDS011;4820;50.870;4.702;2024-03-22T08:05:03;13.35;;;11.55;;
9563;SDS011;4820;50.870;4.702;2024-03-22T08:07:30;15.13;;;12.30;;
9563;SDS011;4820;50.870;4.702;2024-03-22T08:09:56;15.38;;;11.93;;
9563;SDS011;4820;50.870;4.702;2024-03-22T08:12:22;14.57;;;11.55;;
9563;SDS011;4820;50.870;4.702;2024-03-22T08:14:49;14.98;;;11.85;;
9563;SDS011;4820;50.870;4.702;2024-03-22T08:17:15;15.27;;;11.90;;
9563;SDS011;4820;50.870;4.702;2024-03-22T08:19:41;15.10;;;12.38;;
9563;SDS011;4820;50.870;4.702;2024-03-22T08:22:07;13.68;;;11.80;;
9563;SDS011;4820;50.870;4.702;2024-03-22T08:24:33;13.52;;;11.07;;
9563;SDS011;4820;50.870;4.702;2024-03-22T08:26:58;14.52;;;11.65;;
9563;SDS011;4820;50.870;4.702;2024-03-22T08:29:24;17.90;;;12.98;;
9563;SDS011;4820;50.870;4.702;2024-03-22T08:31:50;15.27;;;11.75;;
9563;SDS011;4820;50.870;4.702;2024-03-22T08:34:16;13.52;;;10.35;;
9563;SDS011;4820;50.870;4.702;2024-03-22T08:36:42;15.30;;;12.32;;
9563;SDS011;4820;50.870;4.702;2024-03-22T08:39:08;12.38;;;10.30;;
9563;SDS011;4820;50.870;4.702;2024-03-22T08:41:36;11.85;;;10.35;;
9563;SDS011;4820;50.870;4.702;2024-03-22T08:44:02;12.05;;;10.18;;
9563;SDS011;4820;50.870;4.702;2024-03-22T08:46:30;14.75;;;10.57;;
9563;SDS011;4820;50.870;4.702;2024-03-22T08:48:57;12.13;;;10.70;;
9563;SDS011;4820;50.870;4.702;2024-03-22T08:51:23;14.52;;;11.02;;
9563;SDS011;4820;50.870;4.702;2024-03-22T08:53:48;13.35;;;11.30;;
9563;SDS011;4820;50.870;4.702;2024-03-22T08:56:14;15.88;;;12.07;;
9563;SDS011;4820;50.870;4.702;2024-03-22T08:58:40;15.32;;;11.60;;
9563;SDS011;4820;50.870;4.702;2024-03-22T09:01:06;12.80;;;11.07;;
9563;SDS011;4820;50.870;4.702;2024-03-22T09:03:31;13.13;;;11.68;;
9563;SDS011;4820;50.870;4.702;2024-03-22T09:05:57;13.27;;;11.88;;
9563;SDS011;4820;50.870;4.702;2024-03-22T09:08:23;13.18;;;11.75;;
9563;SDS011;4820;50.870;4.702;2024-03-22T09:10:48;12.65;;;11.32;;
9563;SDS011;4820;50.870;4.702;2024-03-22T09:13:14;14.50;;;11.82;;
9563;SDS011;4820;50.870;4.702;2024-03-22T09:15:41;14.80;;;12.07;;
9563;SDS011;4820;50.870;4.702;2024-03-22T09:18:06;13.73;;;11.77;;
9563;SDS011;4820;50.870;4.702;2024-03-22T09:20:33;12.98;;;11.35;;
9563;SDS011;4820;50.870;4.702;2024-03-22T09:22:59;13.73;;;11.25;;
9563;SDS011;4820;50.870;4.702;2024-03-22T09:25:24;15.27;;;11.32;;
9563;SDS011;4820;50.870;4.702;2024-03-22T09:27:50;12.73;;;11.25;;
9563;SDS011;4820;50.870;4.702;2024-03-22T09:30:16;13.15;;;10.32;;
9563;SDS011;4820;50.870;4.702;2024-03-22T09:32:42;14.30;;;10.52;;
9563;SDS011;4820;50.870;4.702;2024-03-22T09:35:09;12.23;;;10.48;;
9563;SDS011;4820;50.870;4.702;2024-03-22T09:37:36;13.40;;;11.05;;
9563;SDS011;4820;50.870;4.702;2024-03-22T09:40:02;13.15;;;10.20;;
9563;SDS011;4820;50.870;4.702;2024-03-22T09:42:33;11.73;;;10.23;;
9563;SDS011;4820;50.870;4.702;2024-03-22T09:45:04;11.43;;;9.77;;
9563;SDS011;4820;50.870;4.702;2024-03-22T09:47:34;12.63;;;10.60;;
9563;SDS011;4820;50.870;4.702;2024-03-22T09:50:00;11.75;;;9.98;;
9563;SDS011;4820;50.870;4.702;2024-03-22T09:52:28;12.45;;;10.43;;
9563;SDS011;4820;50.870;4.702;2024-03-22T09:54:55;12.38;;;10.13;;
9563;SDS011;4820;50.870;4.702;2024-03-22T09:57:20;12.05;;;10.02;;
9563;SDS011;4820;50.870;4.702;2024-03-22T09:59:47;11.50;;;10.07;;
9563;SDS011;4820;50.870;4.702;2024-03-22T10:02:16;11.10;;;9.60;;
9563;SDS011;4820;50.870;4.702;2024-03-22T10:04:43;13.90;;;10.00;;
9563;SDS011;4820;50.870;4.702;2024-03-22T10:07:09;13.50;;;10.45;;
9563;SDS011;4820;50.870;4.702;2024-03-22T10:09:35;11.85;;;9.88;;
9563;SDS011;4820;50.870;4.702;2024-03-22T10:12:02;12.15;;;9.52;;
9563;SDS011;4820;50.870;4.702;2024-03-22T10:14:30;11.90;;;10.20;;
9563;SDS011;4820;50.870;4.702;2024-03-22T10:16:57;12.68;;;10.75;;
9563;SDS011;4820;50.870;4.702;2024-03-22T10:19:23;13.30;;;10.48;;
9563;SDS011;4820;50.870;4.702;2024-03-22T10:22:04;12.93;;;10.45;;
9563;SDS011;4820;50.870;4.702;2024-03-22T10:24:33;12.93;;;10.32;;
9563;SDS011;4820;50.870;4.702;2024-03-22T10:26:59;12.57;;;10.30;;
9563;SDS011;4820;50.870;4.702;2024-03-22T10:29:25;12.13;;;10.25;;
9563;SDS011;4820;50.870;4.702;2024-03-22T10:31:54;13.63;;;10.70;;
9563;SDS011;4820;50.870;4.702;2024-03-22T10:34:21;11.65;;;10.45;;
9563;SDS011;4820;50.870;4.702;2024-03-22T10:36:47;11.75;;;10.45;;
9563;SDS011;4820;50.870;4.702;2024-03-22T10:39:16;12.65;;;10.85;;
9563;SDS011;4820;50.870;4.702;2024-03-22T10:41:46;13.02;;;11.18;;
9563;SDS011;4820;50.870;4.702;2024-03-22T10:44:12;14.73;;;12.02;;
9563;SDS011;4820;50.870;4.702;2024-03-22T10:46:38;12.82;;;11.50;;
9563;SDS011;4820;50.870;4.702;2024-03-22T10:49:17;12.98;;;11.57;;
9563;SDS011;4820;50.870;4.702;2024-03-22T10:51:46;12.98;;;11.07;;
9563;SDS011;4820;50.870;4.702;2024-03-22T10:54:20;11.88;;;10.30;;
9563;SDS011;4820;50.870;4.702;2024-03-22T10:56:49;12.60;;;10.73;;
9563;SDS011;4820;50.870;4.702;2024-03-22T10:59:19;12.30;;;10.07;;
9563;SDS011;4820;50.870;4.702;2024-03-22T11:01:48;12.07;;;10.30;;
9563;SDS011;4820;50.870;4.702;2024-03-22T11:04:15;12.68;;;10.77;;
9563;SDS011;4820;50.870;4.702;2024-03-22T11:06:49;12.00;;;10.20;;
9563;SDS011;4820;50.870;4.702;2024-03-22T11:09:22;16.42;;;11.15;;
9563;SDS011;4820;50.870;4.702;2024-03-22T11:11:51;11.90;;;10.05;;
9563;SDS011;4820;50.870;4.702;2024-03-22T11:14:17;11.57;;;10.40;;
9563;SDS011;4820;50.870;4.702;2024-03-22T11:16:46;12.60;;;10.73;;
9563;SDS011;4820;50.870;4.702;2024-03-22T11:19:12;11.70;;;10.38;;
9563;SDS011;4820;50.870;4.702;2024-03-22T11:21:40;16.08;;;10.52;;
9563;SDS011;4820;50.870;4.702;2024-03-22T11:24:06;17.63;;;11.57;;
9563;SDS011;4820;50.870;4.702;2024-03-22T11:26:34;12.30;;;10.75;;
9563;SDS011;4820;50.870;4.702;2024-03-22T11:29:00;10.75;;;9.60;;
9563;SDS011;4820;50.870;4.702;2024-03-22T11:31:26;12.52;;;10.10;;
9563;SDS011;4820;50.870;4.702;2024-03-22T11:33:56;11.20;;;10.02;;
9563;SDS011;4820;50.870;4.702;2024-03-22T11:36:25;10.25;;;9.15;;
9563;SDS011;4820;50.870;4.702;2024-03-22T11:38:52;11.50;;;10.27;;
9563;SDS011;4820;50.870;4.702;2024-03-22T11:41:19;12.30;;;9.93;;
9563;SDS011;4820;50.870;4.702;2024-03-22T11:43:52;11.05;;;9.38;;
9563;SDS011;4820;50.870;4.702;2024-03-22T11:46:18;11.30;;;9.75;;
9563;SDS011;4820;50.870;4.702;2024-03-22T11:48:50;12.65;;;10.75;;
9563;SDS011;4820;50.870;4.702;2024-03-22T11:51:17;10.80;;;9.68;;
9563;SDS011;4820;50.870;4.702;2024-03-22T11:53:50;13.40;;;10.43;;
9563;SDS011;4820;50.870;4.702;2024-03-22T11:56:20;14.55;;;11.02;;
9563;SDS011;4820;50.870;4.702;2024-03-22T11:58:48;13.57;;;10.90;;
9563;SDS011;4820;50.870;4.702;2024-03-22T12:01:17;11.30;;;10.07;;
9563;SDS011;4820;50.870;4.702;2024-03-22T12:03:46;12.07;;;10.52;;
9563;SDS011;4820;50.870;4.702;2024-03-22T12:06:12;14.30;;;11.23;;
9563;SDS011;4820;50.870;4.702;2024-03-22T12:08:39;12.43;;;10.65;;
9563;SDS011;4820;50.870;4.702;2024-03-22T12:11:06;14.02;;;11.45;;
9563;SDS011;4820;50.870;4.702;2024-03-22T12:13:33;14.05;;;10.82;;
9563;SDS011;4820;50.870;4.702;2024-03-22T12:16:00;13.00;;;11.25;;
9563;SDS011;4820;50.870;4.702;2024-03-22T12:18:26;15.82;;;10.75;;
9563;SDS011;4820;50.870;4.702;2024-03-22T12:20:52;11.88;;;10.60;;
9563;SDS011;4820;50.870;4.702;2024-03-22T12:23:18;13.63;;;10.98;;
9563;SDS011;4820;50.870;4.702;2024-03-22T12:25:44;13.68;;;10.68;;
9563;SDS011;4820;50.870;4.702;2024-03-22T12:28:09;16.02;;;11.23;;
9563;SDS011;4820;50.870;4.702;2024-03-22T12:30:35;12.75;;;10.55;;
9563;SDS011;4820;50.870;4.702;2024-03-22T12:33:01;13.50;;;9.98;;
9563;SDS011;4820;50.870;4.702;2024-03-22T12:35:26;13.00;;;11.35;;
9563;SDS011;4820;50.870;4.702;2024-03-22T12:37:52;13.73;;;9.90;;
9563;SDS011;4820;50.870;4.702;2024-03-22T12:40:18;12.65;;;10.40;;
9563;SDS011;4820;50.870;4.702;2024-03-22T12:42:44;11.43;;;10.13;;
9563;SDS011;4820;50.870;4.702;2024-03-22T12:45:10;10.77;;;9.75;;
9563;SDS011;4820;50.870;4.702;2024-03-22T12:47:36;11.55;;;9.98;;
9563;SDS011;4820;50.870;4.702;2024-03-22T12:50:03;14.98;;;9.80;;
9563;SDS011;4820;50.870;4.702;2024-03-22T12:52:29;13.40;;;11.15;;
9563;SDS011;4820;50.870;4.702;2024-03-22T12:54:55;13.82;;;11.57;;
9563;SDS011;4820;50.870;4.702;2024-03-22T12:57:21;12.35;;;10.57;;
9563;SDS011;4820;50.870;4.702;2024-03-22T12:59:46;14.60;;;10.80;;
9563;SDS011;4820;50.870;4.702;2024-03-22T13:02:12;13.77;;;11.48;;
9563;SDS011;4820;50.870;4.702;2024-03-22T13:04:39;12.55;;;10.18;;
9563;SDS011;4820;50.870;4.702;2024-03-22T13:07:04;11.95;;;10.68;;
9563;SDS011;4820;50.870;4.702;2024-03-22T13:09:30;12.23;;;9.88;;
9563;SDS011;4820;50.870;4.702;2024-03-22T13:11:55;14.98;;;10.48;;
9563;SDS011;4820;50.870;4.702;2024-03-22T13:14:21;12.88;;;11.15;;
9563;SDS011;4820;50.870;4.702;2024-03-22T13:16:47;13.32;;;11.20;;
9563;SDS011;4820;50.870;4.702;2024-03-22T13:19:13;12.82;;;11.02;;
9563;SDS011;4820;50.870;4.702;2024-03-22T13:21:40;15.50;;;11.05;;
9563;SDS011;4820;50.870;4.702;2024-03-22T13:24:05;14.60;;;10.60;;
9563;SDS011;4820;50.870;4.702;2024-03-22T13:26:31;14.70;;;10.35;;
9563;SDS011;4820;50.870;4.702;2024-03-22T13:28:57;11.95;;;10.55;;
9563;SDS011;4820;50.870;4.702;2024-03-22T13:31:24;13.43;;;10.50;;
9563;SDS011;4820;50.870;4.702;2024-03-22T13:33:50;10.90;;;9.82;;
9563;SDS011;4820;50.870;4.702;2024-03-22T13:36:17;13.20;;;10.73;;
9563;SDS011;4820;50.870;4.702;2024-03-22T13:38:43;15.65;;;10.38;;
9563;SDS011;4820;50.870;4.702;2024-03-22T13:41:09;15.70;;;10.55;;
9563;SDS011;4820;50.870;4.702;2024-03-22T13:43:35;16.98;;;11.07;;
9563;SDS011;4820;50.870;4.702;2024-03-22T13:46:02;15.02;;;10.98;;
9563;SDS011;4820;50.870;4.702;2024-03-22T13:48:28;13.77;;;10.82;;
9563;SDS011;4820;50.870;4.702;2024-03-22T13:50:54;14.95;;;10.95;;
9563;SDS011;4820;50.870;4.702;2024-03-22T13:53:20;12.68;;;11.02;;
9563;SDS011;4820;50.870;4.702;2024-03-22T13:55:49;15.15;;;11.07;;
9563;SDS011;4820;50.870;4.702;2024-03-22T13:58:19;15.30;;;11.05;;
9563;SDS011;4820;50.870;4.702;2024-03-22T14:00:47;14.18;;;10.65;;
9563;SDS011;4820;50.870;4.702;2024-03-22T14:03:13;14.10;;;10.40;;
9563;SDS011;4820;50.870;4.702;2024-03-22T14:05:39;16.08;;;11.02;;
9563;SDS011;4820;50.870;4.702;2024-03-22T14:08:06;16.30;;;12.13;;
9563;SDS011;4820;50.870;4.702;2024-03-22T14:10:32;12.85;;;11.05;;
9563;SDS011;4820;50.870;4.702;2024-03-22T14:12:58;13.25;;;11.02;;
9563;SDS011;4820;50.870;4.702;2024-03-22T14:15:24;15.35;;;11.55;;
9563;SDS011;4820;50.870;4.702;2024-03-22T14:17:51;16.67;;;11.90;;
9563;SDS011;4820;50.870;4.702;2024-03-22T14:20:18;18.30;;;11.38;;
9563;SDS011;4820;50.870;4.702;2024-03-22T14:22:44;18.95;;;11.85;;
9563;SDS011;4820;50.870;4.702;2024-03-22T14:25:10;14.23;;;10.77;;
9563;SDS011;4820;50.870;4.702;2024-03-22T14:27:36;14.70;;;11.18;;
9563;SDS011;4820;50.870;4.702;2024-03-22T14:30:04;12.88;;;10.93;;
9563;SDS011;4820;50.870;4.702;2024-03-22T14:32:33;13.73;;;10.35;;
9563;SDS011;4820;50.870;4.702;2024-03-22T14:35:01;13.00;;;10.50;;
9563;SDS011;4820;50.870;4.702;2024-03-22T14:37:28;12.95;;;10.40;;
9563;SDS011;4820;50.870;4.702;2024-03-22T14:39:53;14.88;;;10.98;;
9563;SDS011;4820;50.870;4.702;2024-03-22T14:42:19;14.98;;;11.10;;
9563;SDS011;4820;50.870;4.702;2024-03-22T14:44:46;13.00;;;10.80;;
9563;SDS011;4820;50.870;4.702;2024-03-22T14:47:12;15.45;;;10.95;;